Time,TemperatureF,DewpointF,PressureIn,WindDirection,WindDirectionDegrees,WindSpeedMPH,WindSpeedGustMPH,Humidity,HourlyPrecipIn,Conditions,Clouds,dailyrainin,SoftwareType,DateUTC
2013-02-10 00:02:00,34.0,-99.9,-100.00,SSE,152,5.0,7.0,-999,0.00,,,0.00,,2013-02-10 06:02:00,
2013-02-10 00:11:00,34.0,-99.9,-100.00,SSE,152,5.0,7.0,-999,0.00,,,0.00,,2013-02-10 06:11:00,
2013-02-10 00:22:00,34.0,-99.9,-100.00,SSE,152,5.0,7.0,-999,0.00,,,0.00,,2013-02-10 06:22:00,
2013-02-10 00:32:00,34.0,-99.9,-100.00,SE,140,5.0,6.0,-999,0.00,,,0.00,,2013-02-10 06:32:00,
2013-02-10 00:42:00,34.0,-99.9,-100.00,SE,140,5.0,6.0,-999,0.00,,,0.00,,2013-02-10 06:42:00,
2013-02-10 00:52:00,34.0,-99.9,-100.00,SE,140,5.0,6.0,-999,0.00,,,0.00,,2013-02-10 06:52:00,
2013-02-10 01:01:00,35.0,-99.9,-100.00,SSE,152,6.0,7.0,-999,0.00,,,0.00,,2013-02-10 07:01:00,
2013-02-10 01:11:00,35.0,-99.9,-100.00,SSE,152,6.0,7.0,-999,0.00,,,0.00,,2013-02-10 07:11:00,
2013-02-10 01:21:00,35.0,-99.9,-100.00,SSE,152,6.0,7.0,-999,0.00,,,0.00,,2013-02-10 07:21:00,
2013-02-10 01:32:00,35.0,-99.9,-100.00,ESE,122,5.0,7.0,-999,0.00,,,0.00,,2013-02-10 07:32:00,
2013-02-10 01:42:00,35.0,-99.9,-100.00,ESE,122,5.0,7.0,-999,0.00,,,0.00,,2013-02-10 07:42:00,
2013-02-10 01:52:00,35.0,-99.9,-100.00,ESE,122,5.0,7.0,-999,0.00,,,0.00,,2013-02-10 07:52:00,
2013-02-10 02:01:00,35.0,-99.9,-100.00,SE,143,6.0,9.0,-999,0.00,,,0.00,,2013-02-10 08:01:00,
2013-02-10 02:11:00,35.0,-99.9,-100.00,SE,143,6.0,9.0,-999,0.00,,,0.00,,2013-02-10 08:11:00,
2013-02-10 02:22:00,35.0,-99.9,-100.00,SE,143,6.0,9.0,-999,0.00,,,0.00,,2013-02-10 08:22:00,
2013-02-10 02:32:00,35.0,-99.9,-100.00,SE,134,7.0,8.0,-999,0.00,,,0.00,,2013-02-10 08:32:00,
2013-02-10 02:43:00,35.0,-99.9,-100.00,SE,134,7.0,8.0,-999,0.00,,,0.00,,2013-02-10 08:43:00,
2013-02-10 02:52:00,35.0,-99.9,-100.00,SE,134,7.0,8.0,-999,0.00,,,0.00,,2013-02-10 08:52:00,
2013-02-10 03:02:00,35.0,-99.9,-100.00,SE,142,6.0,9.0,-999,0.00,,,0.00,,2013-02-10 09:02:00,
2013-02-10 03:11:00,35.0,-99.9,-100.00,SE,142,6.0,9.0,-999,0.00,,,0.00,,2013-02-10 09:11:00,
2013-02-10 03:22:00,35.0,-99.9,-100.00,SE,142,6.0,9.0,-999,0.00,,,0.00,,2013-02-10 09:22:00,
2013-02-10 03:32:00,35.0,-99.9,-100.00,SE,132,7.0,9.0,-999,0.00,,,0.00,,2013-02-10 09:32:00,
2013-02-10 03:42:00,35.0,-99.9,-100.00,SE,132,7.0,9.0,-999,0.00,,,0.00,,2013-02-10 09:42:00,
2013-02-10 03:52:00,35.0,-99.9,-100.00,SE,132,7.0,9.0,-999,0.00,,,0.00,,2013-02-10 09:52:00,
2013-02-10 04:02:00,36.0,-99.9,-100.00,SSE,151,10.0,15.0,-999,0.00,,,0.00,,2013-02-10 10:02:00,
2013-02-10 04:11:00,36.0,-99.9,-100.00,SSE,151,10.0,15.0,-999,0.00,,,0.00,,2013-02-10 10:11:00,
2013-02-10 04:21:00,36.0,-99.9,-100.00,SSE,151,10.0,15.0,-999,0.00,,,0.00,,2013-02-10 10:21:00,
2013-02-10 04:32:00,36.0,-99.9,-100.00,SE,139,7.0,9.0,-999,0.02,,,0.02,,2013-02-10 10:32:00,
2013-02-10 04:42:00,36.0,-99.9,-100.00,SE,139,7.0,9.0,-999,0.02,,,0.02,,2013-02-10 10:42:00,
2013-02-10 04:52:00,36.0,-99.9,-100.00,SE,139,7.0,9.0,-999,0.02,,,0.02,,2013-02-10 10:52:00,
2013-02-10 05:01:00,36.0,-99.9,-100.00,SE,135,9.0,13.0,-999,0.02,,,0.02,,2013-02-10 11:01:00,
2013-02-10 05:11:00,36.0,-99.9,-100.00,SE,135,9.0,13.0,-999,0.02,,,0.02,,2013-02-10 11:11:00,
2013-02-10 05:22:00,36.0,-99.9,-100.00,SE,135,9.0,13.0,-999,0.02,,,0.02,,2013-02-10 11:22:00,
2013-02-10 05:32:00,36.0,-99.9,-100.00,ESE,119,7.0,10.0,-999,0.01,,,0.03,,2013-02-10 11:32:00,
2013-02-10 05:42:00,36.0,-99.9,-100.00,ESE,119,7.0,10.0,-999,0.01,,,0.03,,2013-02-10 11:42:00,
2013-02-10 05:52:00,36.0,-99.9,-100.00,ESE,119,7.0,10.0,-999,0.01,,,0.03,,2013-02-10 11:52:00,
2013-02-10 06:02:00,36.0,-99.9,-100.00,ESE,114,8.0,10.0,-999,0.01,,,0.03,,2013-02-10 12:02:00,
2013-02-10 06:12:00,36.0,-99.9,-100.00,ESE,114,8.0,10.0,-999,0.01,,,0.03,,2013-02-10 12:12:00,
2013-02-10 06:22:00,36.0,-99.9,-100.00,ESE,114,8.0,10.0,-999,0.01,,,0.03,,2013-02-10 12:22:00,
2013-02-10 06:30:00,37.0,-99.9,-100.00,ESE,105,9.0,13.0,-999,0.00,,,0.03,,2013-02-10 12:30:00,
2013-02-10 06:32:00,37.0,-99.9,-100.00,East,99,6.0,9.0,-999,0.00,,,0.03,,2013-02-10 12:32:00,
2013-02-10 06:42:00,37.0,-99.9,-100.00,East,99,6.0,9.0,-999,0.00,,,0.03,,2013-02-10 12:42:00,
2013-02-10 06:52:00,37.0,-99.9,-100.00,East,99,6.0,9.0,-999,0.00,,,0.03,,2013-02-10 12:52:00,
2013-02-10 07:02:00,37.0,-99.9,-100.00,ESE,105,9.0,13.0,-999,0.00,,,0.03,,2013-02-10 13:02:00,
2013-02-10 07:12:00,37.0,-99.9,-100.00,ESE,105,9.0,13.0,-999,0.00,,,0.03,,2013-02-10 13:12:00,
2013-02-10 07:22:00,37.0,-99.9,-100.00,ESE,105,9.0,13.0,-999,0.00,,,0.03,,2013-02-10 13:22:00,
2013-02-10 07:30:00,38.0,-99.9,-100.00,SE,133,11.0,15.0,-999,0.00,,,0.03,,2013-02-10 13:30:00,
2013-02-10 08:02:00,38.0,-99.9,-100.00,SE,133,11.0,15.0,-999,0.00,,,0.03,,2013-02-10 14:02:00,
2013-02-10 08:11:00,38.0,-99.9,-100.00,SE,133,11.0,15.0,-999,0.00,,,0.03,,2013-02-10 14:11:00,
2013-02-10 08:22:00,38.0,-99.9,-100.00,SE,133,11.0,15.0,-999,0.00,,,0.03,,2013-02-10 14:22:00,
2013-02-10 08:30:00,38.0,-99.9,-100.00,SE,134,12.0,19.0,-999,0.00,,,0.03,,2013-02-10 14:30:00,
2013-02-10 09:02:00,38.0,-99.9,-100.00,SE,134,12.0,19.0,-999,0.00,,,0.03,,2013-02-10 15:02:00,
2013-02-10 09:12:00,38.0,-99.9,-100.00,SE,134,12.0,19.0,-999,0.00,,,0.03,,2013-02-10 15:12:00,
2013-02-10 09:22:00,38.0,-99.9,-100.00,SE,134,12.0,19.0,-999,0.00,,,0.03,,2013-02-10 15:22:00,
2013-02-10 09:52:00,39.0,-99.9,-100.00,SE,124,11.0,14.0,-999,0.12,,,0.15,,2013-02-10 15:52:00,
2013-02-10 10:02:00,39.0,-99.9,-100.00,SE,134,11.0,18.0,-999,0.14,,,0.17,,2013-02-10 16:02:00,
2013-02-10 10:12:00,39.0,-99.9,-100.00,SE,134,11.0,18.0,-999,0.14,,,0.17,,2013-02-10 16:12:00,
2013-02-10 10:22:00,39.0,-99.9,-100.00,SE,134,11.0,18.0,-999,0.14,,,0.17,,2013-02-10 16:22:00,
2013-02-10 10:32:00,40.0,-99.9,-100.00,SE,131,13.0,18.0,-999,0.02,,,0.17,,2013-02-10 16:32:00,
2013-02-10 10:42:00,40.0,-99.9,-100.00,SE,131,13.0,18.0,-999,0.02,,,0.17,,2013-02-10 16:42:00,
2013-02-10 10:52:00,40.0,-99.9,-100.00,SE,131,13.0,18.0,-999,0.02,,,0.17,,2013-02-10 16:52:00,
2013-02-10 11:02:00,41.0,-99.9,-100.00,SE,136,17.0,25.0,-999,0.01,,,0.18,,2013-02-10 17:02:00,
2013-02-10 11:12:00,41.0,-99.9,-100.00,SE,136,17.0,25.0,-999,0.01,,,0.18,,2013-02-10 17:12:00,
2013-02-10 11:22:00,41.0,-99.9,-100.00,SE,136,17.0,25.0,-999,0.01,,,0.18,,2013-02-10 17:22:00,
2013-02-10 11:32:00,42.0,-99.9,-100.00,SE,139,15.0,26.0,-999,0.01,,,0.18,,2013-02-10 17:32:00,
2013-02-10 11:42:00,42.0,-99.9,-100.00,SE,139,15.0,26.0,-999,0.01,,,0.18,,2013-02-10 17:42:00,
2013-02-10 11:53:00,42.0,-99.9,-100.00,SE,139,15.0,26.0,-999,0.01,,,0.18,,2013-02-10 17:53:00,
2013-02-10 12:02:00,43.0,-99.9,-100.00,SE,142,16.0,22.0,-999,0.00,,,0.18,,2013-02-10 18:02:00,
2013-02-10 12:12:00,43.0,-99.9,-100.00,SE,142,16.0,22.0,-999,0.00,,,0.18,,2013-02-10 18:12:00,
2013-02-10 12:22:00,43.0,-99.9,-100.00,SE,142,16.0,22.0,-999,0.00,,,0.18,,2013-02-10 18:22:00,
2013-02-10 12:30:00,44.0,-99.9,-100.00,SSE,156,16.0,21.0,-999,0.00,,,0.18,,2013-02-10 18:30:00,
2013-02-10 12:32:00,44.0,-99.9,-100.00,SSE,157,13.0,18.0,-999,0.00,,,0.18,,2013-02-10 18:32:00,
2013-02-10 12:42:00,44.0,-99.9,-100.00,SSE,157,13.0,18.0,-999,0.00,,,0.18,,2013-02-10 18:42:00,
2013-02-10 12:52:00,44.0,-99.9,-100.00,SSE,157,13.0,18.0,-999,0.00,,,0.18,,2013-02-10 18:52:00,
2013-02-10 13:02:00,44.0,-99.9,-100.00,SSE,156,16.0,21.0,-999,0.00,,,0.18,,2013-02-10 19:02:00,
2013-02-10 13:12:00,44.0,-99.9,-100.00,SSE,156,16.0,21.0,-999,0.00,,,0.18,,2013-02-10 19:12:00,
2013-02-10 13:22:00,44.0,-99.9,-100.00,SSE,156,16.0,21.0,-999,0.00,,,0.18,,2013-02-10 19:22:00,
2013-02-10 13:43:00,45.0,-99.9,-100.00,SSE,156,14.0,24.0,-999,0.00,,,0.18,,2013-02-10 19:43:00,
2013-02-10 13:52:00,45.0,-99.9,-100.00,SSE,156,14.0,24.0,-999,0.00,,,0.18,,2013-02-10 19:52:00,
2013-02-10 14:02:00,46.0,-99.9,-100.00,SE,146,12.0,18.0,-999,0.00,,,0.18,,2013-02-10 20:02:00,
2013-02-10 14:12:00,46.0,-99.9,-100.00,SE,146,12.0,18.0,-999,0.00,,,0.18,,2013-02-10 20:12:00,
2013-02-10 14:22:00,46.0,-99.9,-100.00,SE,146,12.0,18.0,-999,0.00,,,0.18,,2013-02-10 20:22:00,
2013-02-10 14:30:00,48.0,-99.9,-100.00,SSE,153,15.0,21.0,-999,0.00,,,0.18,,2013-02-10 20:30:00,
2013-02-10 14:32:00,48.0,-99.9,-100.00,SE,143,17.0,20.0,-999,0.00,,,0.18,,2013-02-10 20:32:00,
2013-02-10 14:42:00,48.0,-99.9,-100.00,SE,143,17.0,20.0,-999,0.00,,,0.18,,2013-02-10 20:42:00,
2013-02-10 14:53:00,48.0,-99.9,-100.00,SE,143,17.0,20.0,-999,0.00,,,0.18,,2013-02-10 20:53:00,
2013-02-10 15:03:00,48.0,-99.9,-100.00,SSE,153,15.0,21.0,-999,0.00,,,0.18,,2013-02-10 21:03:00,
2013-02-10 15:12:00,48.0,-99.9,-100.00,SSE,153,15.0,21.0,-999,0.00,,,0.18,,2013-02-10 21:12:00,
2013-02-10 15:22:00,48.0,-99.9,-100.00,SSE,153,15.0,21.0,-999,0.00,,,0.18,,2013-02-10 21:22:00,
2013-02-10 15:30:00,50.0,-99.9,-100.00,SSE,160,15.0,22.0,-999,0.00,,,0.18,,2013-02-10 21:30:00,
2013-02-10 16:02:00,50.0,-99.9,-100.00,SSE,160,15.0,22.0,-999,0.00,,,0.18,,2013-02-10 22:02:00,
2013-02-10 16:12:00,50.0,-99.9,-100.00,SSE,160,15.0,22.0,-999,0.00,,,0.18,,2013-02-10 22:12:00,
2013-02-10 16:22:00,50.0,-99.9,-100.00,SSE,160,15.0,22.0,-999,0.00,,,0.18,,2013-02-10 22:22:00,
2013-02-10 16:42:00,51.0,-99.9,-100.00,SSE,157,14.0,18.0,-999,0.00,,,0.18,,2013-02-10 22:42:00,
2013-02-10 16:53:00,51.0,-99.9,-100.00,SSE,157,14.0,18.0,-999,0.00,,,0.18,,2013-02-10 22:53:00,
2013-02-10 17:02:00,52.0,-99.9,-100.00,SSE,162,14.0,18.0,-999,0.00,,,0.18,,2013-02-10 23:02:00,
2013-02-10 17:12:00,52.0,-99.9,-100.00,SSE,162,14.0,18.0,-999,0.00,,,0.18,,2013-02-10 23:12:00,
2013-02-10 17:22:00,52.0,-99.9,-100.00,SSE,162,14.0,18.0,-999,0.00,,,0.18,,2013-02-10 23:22:00,
2013-02-10 17:32:00,51.0,-99.9,-100.00,South,180,11.0,15.0,-999,0.00,,,0.18,,2013-02-10 23:32:00,
2013-02-10 17:42:00,51.0,-99.9,-100.00,South,180,11.0,15.0,-999,0.00,,,0.18,,2013-02-10 23:42:00,
2013-02-10 17:52:00,51.0,-99.9,-100.00,South,180,11.0,15.0,-999,0.00,,,0.18,,2013-02-10 23:52:00,
2013-02-10 18:02:00,50.0,-99.9,-100.00,South,186,10.0,14.0,-999,0.00,,,0.18,,2013-02-11 00:02:00,
2013-02-10 18:11:00,50.0,-99.9,-100.00,South,186,10.0,14.0,-999,0.00,,,0.18,,2013-02-11 00:11:00,
2013-02-10 18:22:00,50.0,-99.9,-100.00,South,186,10.0,14.0,-999,0.00,,,0.18,,2013-02-11 00:22:00,
2013-02-10 18:30:00,50.0,-99.9,-100.00,SSW,209,10.0,15.0,-999,0.00,,,0.18,,2013-02-11 00:30:00,
2013-02-10 18:32:00,50.0,-99.9,-100.00,SSW,212,9.0,11.0,-999,0.00,,,0.18,,2013-02-11 00:32:00,
2013-02-10 18:42:00,50.0,-99.9,-100.00,SSW,212,9.0,11.0,-999,0.00,,,0.18,,2013-02-11 00:42:00,
2013-02-10 18:52:00,50.0,-99.9,-100.00,SSW,212,9.0,11.0,-999,0.00,,,0.18,,2013-02-11 00:52:00,
2013-02-10 19:02:00,50.0,-99.9,-100.00,SSW,209,10.0,15.0,-999,0.00,,,0.18,,2013-02-11 01:02:00,
2013-02-10 19:11:00,50.0,-99.9,-100.00,SSW,209,10.0,15.0,-999,0.00,,,0.18,,2013-02-11 01:11:00,
2013-02-10 19:22:00,50.0,-99.9,-100.00,SSW,209,10.0,15.0,-999,0.00,,,0.18,,2013-02-11 01:22:00,
2013-02-10 20:01:00,47.0,-99.9,-100.00,SW,214,12.0,19.0,-999,0.00,,,0.18,,2013-02-11 02:01:00,
2013-02-10 20:11:00,47.0,-99.9,-100.00,SW,214,12.0,19.0,-999,0.00,,,0.18,,2013-02-11 02:11:00,
2013-02-10 20:21:00,47.0,-99.9,-100.00,SW,214,12.0,19.0,-999,0.00,,,0.18,,2013-02-11 02:21:00,
2013-02-10 20:32:00,46.0,-99.9,-100.00,SSW,210,12.0,20.0,-999,0.00,,,0.18,,2013-02-11 02:32:00,
2013-02-10 20:42:00,46.0,-99.9,-100.00,SSW,210,12.0,20.0,-999,0.00,,,0.18,,2013-02-11 02:42:00,
2013-02-10 20:52:00,46.0,-99.9,-100.00,SSW,210,12.0,20.0,-999,0.00,,,0.18,,2013-02-11 02:52:00,
2013-02-10 21:02:00,45.0,-99.9,-100.00,SW,222,13.0,16.0,-999,0.00,,,0.18,,2013-02-11 03:02:00,
2013-02-10 21:11:00,45.0,-99.9,-100.00,SW,222,13.0,16.0,-999,0.00,,,0.18,,2013-02-11 03:11:00,
2013-02-10 21:22:00,45.0,-99.9,-100.00,SW,222,13.0,16.0,-999,0.00,,,0.18,,2013-02-11 03:22:00,
2013-02-10 21:32:00,43.0,-99.9,-100.00,SW,214,13.0,19.0,-999,0.00,,,0.18,,2013-02-11 03:32:00,
2013-02-10 21:42:00,43.0,-99.9,-100.00,SW,214,13.0,19.0,-999,0.00,,,0.18,,2013-02-11 03:42:00,
2013-02-10 21:52:00,43.0,-99.9,-100.00,SW,214,13.0,19.0,-999,0.00,,,0.18,,2013-02-11 03:52:00,
2013-02-10 22:02:00,42.0,-99.9,-100.00,SW,218,12.0,17.0,-999,0.00,,,0.18,,2013-02-11 04:02:00,
2013-02-10 22:11:00,42.0,-99.9,-100.00,SW,218,12.0,17.0,-999,0.00,,,0.18,,2013-02-11 04:11:00,
2013-02-10 22:22:00,42.0,-99.9,-100.00,SW,218,12.0,17.0,-999,0.00,,,0.18,,2013-02-11 04:22:00,
2013-02-10 22:32:00,41.0,-99.9,-100.00,SW,220,14.0,25.0,-999,0.00,,,0.18,,2013-02-11 04:32:00,
2013-02-10 22:42:00,41.0,-99.9,-100.00,SW,220,14.0,25.0,-999,0.00,,,0.18,,2013-02-11 04:42:00,
2013-02-10 22:52:00,41.0,-99.9,-100.00,SW,220,14.0,25.0,-999,0.00,,,0.18,,2013-02-11 04:52:00,
2013-02-10 23:02:00,40.0,-99.9,-100.00,SW,222,14.0,19.0,-999,0.00,,,0.18,,2013-02-11 05:02:00,
2013-02-10 23:12:00,40.0,-99.9,-100.00,SW,222,14.0,19.0,-999,0.00,,,0.18,,2013-02-11 05:12:00,
2013-02-10 23:22:00,40.0,-99.9,-100.00,SW,222,14.0,19.0,-999,0.00,,,0.18,,2013-02-11 05:22:00,
2013-02-10 23:32:00,38.0,-99.9,-100.00,SW,229,15.0,20.0,-999,0.00,,,0.18,,2013-02-11 05:32:00,
2013-02-10 23:42:00,38.0,-99.9,-100.00,SW,229,15.0,20.0,-999,0.00,,,0.18,,2013-02-11 05:42:00,
2013-02-10 23:53:00,38.0,-99.9,-100.00,SW,229,15.0,20.0,-999,0.00,,,0.18,,2013-02-11 05:53:00,